Harle — ZCTV4 — position and weather

sailwx.info

Track history (hours):
 
Tides and Currents Weather Stations Pressure Air Temp Water Temp Dewpoint Dewpoint Depression Visibility Wind Speed Wind Dir Waves Ship Positions

Harle

Last reported at 2015-Jan-15 20:27 UTC. Time now 2015-Jan-26 20:30 UTC.
Position N 18°17' W 064°54'.
Warning: this ship's position is 11 days out of date.

Length 45 m; draft 2.7 m.

Type: Pleasure craft. MMSI: 319323000.

Date/timePositionNaut miles runAvg speedWind from/ knotsBaromVisibWave heightAir tempDewpointWater temp
2015-Jan-15 20:27N 18°17' W 064°54'  
2015-Jan-11 17:13N 18°18' W 064°52'811.5
2015-Jan-11 16:33N 18°22' W 064°46'3 2.6
2015-Jan-11 15:23N 18°23' W 064°43'0 0.0
2015-Jan-11 14:17N 18°23' W 064°43'0 0.0
2015-Jan-11 13:29N 18°23' W 064°43'0 0.0
2015-Jan-11 12:29N 18°23' W 064°43'0 0.0
2015-Jan-11 11:29N 18°23' W 064°43'0 0.0
2015-Jan-11 10:23N 18°23' W 064°43'0 0.0
2015-Jan-11 09:29N 18°23' W 064°43'0 0.0
2015-Jan-11 08:26N 18°23' W 064°43'0 0.0
2015-Jan-11 07:29N 18°23' W 064°43'0 0.0
2015-Jan-11 06:29N 18°23' W 064°43'0 0.0
2015-Jan-11 05:23N 18°23' W 064°43'0 0.0
2015-Jan-11 04:29N 18°23' W 064°43'0 0.0
2015-Jan-11 03:29N 18°23' W 064°43'0 0.0
2015-Jan-11 02:23N 18°23' W 064°43'0 0.0
2015-Jan-11 01:20N 18°23' W 064°43'0 0.0
2015-Jan-11 00:32N 18°23' W 064°43'0 0.0
2015-Jan-10 23:32N 18°23' W 064°43'0 0.0
2015-Jan-10 22:29N 18°23' W 064°43'0 0.0
2015-Jan-10 21:34N 18°23' W 064°43'7 0.9
2015-Jan-10 13:33N 18°22' W 064°35'4 0.2
2015-Jan-09 19:33N 18°24' W 064°32'5 1.3
2015-Jan-09 15:23N 18°26' W 064°27'12 0.6
2015-Jan-08 20:33N 18°26' W 064°40'0 0.0
2015-Jan-08 19:26N 18°26' W 064°40'0 0.0
2015-Jan-08 18:32N 18°26' W 064°40'0 0.0
2015-Jan-08 17:14N 18°26' W 064°40'0 0.0
2015-Jan-08 15:20N 18°26' W 064°40'0 0.0
2015-Jan-08 13:32N 18°26' W 064°40'0 0.0
2015-Jan-08 12:08N 18°26' W 064°40'0 0.0
2015-Jan-08 11:20N 18°26' W 064°40'0 0.0
2015-Jan-08 10:32N 18°26' W 064°40'0 0.0
2015-Jan-08 09:32N 18°26' W 064°40'0 0.0
2015-Jan-08 07:32N 18°26' W 064°40'0 0.0
2015-Jan-08 06:20N 18°26' W 064°40'0 0.0
2015-Jan-08 05:26N 18°26' W 064°40'0 0.0
2015-Jan-08 04:26N 18°26' W 064°40'0 0.0
2015-Jan-08 03:47N 18°26' W 064°40'0 0.0
2015-Jan-07 20:32N 18°26' W 064°40'0 0.0
2015-Jan-07 19:32N 18°26' W 064°40'4 3.6
2015-Jan-07 18:33N 18°26' W 064°43'2 1.3
2015-Jan-07 17:16N 18°26' W 064°45'0 0.0
2015-Jan-07 16:28N 18°26' W 064°45'0 0.0
2015-Jan-07 15:28N 18°26' W 064°45'0 0.0
2015-Jan-07 14:28N 18°26' W 064°45'0 0.0
2015-Jan-07 13:28N 18°26' W 064°45'0 0.0
2015-Jan-07 12:28N 18°26' W 064°45'0 0.0
2015-Jan-07 11:22N 18°26' W 064°45'0 0.0
2015-Jan-07 10:28N 18°26' W 064°45'0 0.0
2015-Jan-07 08:25N 18°26' W 064°45'0 0.0
2015-Jan-07 07:31N 18°26' W 064°45'0 0.0
2015-Jan-07 06:31N 18°26' W 064°45'0 0.0
2015-Jan-07 05:25N 18°26' W 064°45'0 0.0
2015-Jan-07 04:31N 18°26' W 064°45'0 0.0
2015-Jan-07 03:19N 18°26' W 064°45'0 0.0
2015-Jan-07 02:28N 18°26' W 064°45'0 0.0
2015-Jan-07 01:31N 18°26' W 064°45'0 0.0
2015-Jan-07 00:28N 18°26' W 064°45'0 0.0
2015-Jan-06 23:28N 18°26' W 064°45'0 0.0
2015-Jan-06 22:25N 18°26' W 064°45'0 0.0
2015-Jan-06 21:16N 18°26' W 064°45'0 0.0
2015-Jan-06 20:28N 18°26' W 064°45'0 0.0
2015-Jan-06 19:28N 18°26' W 064°45'0 0.0
2015-Jan-06 18:28N 18°26' W 064°45'7 7.5
2015-Jan-06 17:33N 18°21' W 064°40'2 0.1
2015-Jan-05 20:31N 18°20' W 064°38'  
Track history (hours):
 
Tides and Currents Weather Stations Pressure Air Temp Water Temp Dewpoint Dewpoint Depression Visibility Wind Speed Wind Dir Waves Ship Positions

Harle

Last reported at 2015-Jan-15 20:27 UTC. Time now 2015-Jan-26 20:30 UTC.
Position N 18°17' W 064°54'.
Warning: this ship's position is 11 days out of date.

Length 45 m; draft 2.7 m.

Type: Pleasure craft. MMSI: 319323000.

Date/timePositionNaut miles runAvg speedWind from/ knotsBaromVisibWave heightAir tempDewpointWater temp
2015-Jan-15 20:27N 18°17' W 064°54'  
2015-Jan-11 17:13N 18°18' W 064°52'811.5
2015-Jan-11 16:33N 18°22' W 064°46'3 2.6
2015-Jan-11 15:23N 18°23' W 064°43'0 0.0
2015-Jan-11 14:17N 18°23' W 064°43'0 0.0
2015-Jan-11 13:29N 18°23' W 064°43'0 0.0
2015-Jan-11 12:29N 18°23' W 064°43'0 0.0
2015-Jan-11 11:29N 18°23' W 064°43'0 0.0
2015-Jan-11 10:23N 18°23' W 064°43'0 0.0
2015-Jan-11 09:29N 18°23' W 064°43'0 0.0
2015-Jan-11 08:26N 18°23' W 064°43'0 0.0
2015-Jan-11 07:29N 18°23' W 064°43'0 0.0
2015-Jan-11 06:29N 18°23' W 064°43'0 0.0
2015-Jan-11 05:23N 18°23' W 064°43'0 0.0
2015-Jan-11 04:29N 18°23' W 064°43'0 0.0
2015-Jan-11 03:29N 18°23' W 064°43'0 0.0
2015-Jan-11 02:23N 18°23' W 064°43'0 0.0
2015-Jan-11 01:20N 18°23' W 064°43'0 0.0
2015-Jan-11 00:32N 18°23' W 064°43'0 0.0
2015-Jan-10 23:32N 18°23' W 064°43'0 0.0
2015-Jan-10 22:29N 18°23' W 064°43'0 0.0
2015-Jan-10 21:34N 18°23' W 064°43'7 0.9
2015-Jan-10 13:33N 18°22' W 064°35'4 0.2
2015-Jan-09 19:33N 18°24' W 064°32'5 1.3
2015-Jan-09 15:23N 18°26' W 064°27'12 0.6
2015-Jan-08 20:33N 18°26' W 064°40'0 0.0
2015-Jan-08 19:26N 18°26' W 064°40'0 0.0
2015-Jan-08 18:32N 18°26' W 064°40'0 0.0
2015-Jan-08 17:14N 18°26' W 064°40'0 0.0
2015-Jan-08 15:20N 18°26' W 064°40'0 0.0
2015-Jan-08 13:32N 18°26' W 064°40'0 0.0
2015-Jan-08 12:08N 18°26' W 064°40'0 0.0
2015-Jan-08 11:20N 18°26' W 064°40'0 0.0
2015-Jan-08 10:32N 18°26' W 064°40'0 0.0
2015-Jan-08 09:32N 18°26' W 064°40'0 0.0
2015-Jan-08 07:32N 18°26' W 064°40'0 0.0
2015-Jan-08 06:20N 18°26' W 064°40'0 0.0
2015-Jan-08 05:26N 18°26' W 064°40'0 0.0
2015-Jan-08 04:26N 18°26' W 064°40'0 0.0
2015-Jan-08 03:47N 18°26' W 064°40'0 0.0
2015-Jan-07 20:32N 18°26' W 064°40'0 0.0
2015-Jan-07 19:32N 18°26' W 064°40'4 3.6
2015-Jan-07 18:33N 18°26' W 064°43'2 1.3
2015-Jan-07 17:16N 18°26' W 064°45'0 0.0
2015-Jan-07 16:28N 18°26' W 064°45'0 0.0
2015-Jan-07 15:28N 18°26' W 064°45'0 0.0
2015-Jan-07 14:28N 18°26' W 064°45'0 0.0
2015-Jan-07 13:28N 18°26' W 064°45'0 0.0
2015-Jan-07 12:28N 18°26' W 064°45'0 0.0
2015-Jan-07 11:22N 18°26' W 064°45'0 0.0
2015-Jan-07 10:28N 18°26' W 064°45'0 0.0
2015-Jan-07 08:25N 18°26' W 064°45'0 0.0
2015-Jan-07 07:31N 18°26' W 064°45'0 0.0
2015-Jan-07 06:31N 18°26' W 064°45'0 0.0
2015-Jan-07 05:25N 18°26' W 064°45'0 0.0
2015-Jan-07 04:31N 18°26' W 064°45'0 0.0
2015-Jan-07 03:19N 18°26' W 064°45'0 0.0
2015-Jan-07 02:28N 18°26' W 064°45'0 0.0
2015-Jan-07 01:31N 18°26' W 064°45'0 0.0
2015-Jan-07 00:28N 18°26' W 064°45'0 0.0
2015-Jan-06 23:28N 18°26' W 064°45'0 0.0
2015-Jan-06 22:25N 18°26' W 064°45'0 0.0
2015-Jan-06 21:16N 18°26' W 064°45'0 0.0
2015-Jan-06 20:28N 18°26' W 064°45'0 0.0
2015-Jan-06 19:28N 18°26' W 064°45'0 0.0
2015-Jan-06 18:28N 18°26' W 064°45'7 7.5
2015-Jan-06 17:33N 18°21' W 064°40'2 0.1
2015-Jan-05 20:31N 18°20' W 064°38'  

Dump ship's entire track history